SHMÚ vydal meteorologické výstrahy na Vysoké teplotyBúrky Zobraziť výstrahy

METAR

Letisková meteorologická správa METAR

Meteorologické informácie z ďalších profesionálnych meteorologických staníc SHMÚ zobrazené v tvare zodpovedajúcom pravidlám kódovania správ METAR sú uvedené v položke „METSYN

Informácie o správe METAR

23.08.2019 - 01:00 UTC

METAR LZIB 230100Z 00000KT CAVOK 20/16 Q1025=
METAR LZKZ 230100Z 04006KT CAVOK 16/14 Q1025=
METAR LZPP 230100Z AUTO 01004KT 9999 BKN130/// 18/15 Q1025=
METAR LZSL 230100Z VRB01KT 9999 BKN060 16/15 Q1025=
METAR LZTT 230100Z 26004KT 9999 1500E BCFG FEW002 SCT050 12/11
Q1027=
METAR LZZI 230100Z 08002KT CAVOK 15/13 Q1026=

23.08.2019 - 00:30 UTC

METAR LZIB 230030Z VRB01KT CAVOK 20/16 Q1024=
METAR LZKZ 230030Z 05007KT CAVOK 17/14 Q1025=
METAR LZPP 230030Z AUTO 35007KT 9999 NCD 18/15 Q1025=
METAR LZSL 230030Z 00000KT 9999 BKN059 16/15 Q1025=
METAR LZTT 230030Z VRB02KT 9999 FEW010 SCT050 11/11 Q1027=
METAR LZZI 230030Z 12003KT CAVOK 15/13 Q1026=

22.08.2019 - 21:00 UTC

METAR LZMC 222100Z VRB02KT CAVOK 20/17 Q1026=
METAR LZPW 222100Z AUTO 10004KT 9999 ////// 15/14
Q1026=

skok na menu ↑


skok na začiatok stránky ↑